TimePDT,TemperatureF,Dew PointF,Humidity,Sea Level PressureIn,VisibilityMPH,Wind Direction,Wind SpeedMPH,Gust SpeedMPH,PrecipitationIn,Events,Conditions,WindDirDegrees,DateUTC
12:53 AM,60.1,50.0,69,30.06,10.0,Calm,Calm,-,N/A,,Clear,0,2012-09-15 07:53:00
1:53 AM,57.9,48.9,72,30.08,10.0,Calm,Calm,-,N/A,,Clear,0,2012-09-15 08:53:00
2:53 AM,55.0,48.9,80,30.09,10.0,Calm,Calm,-,N/A,,Clear,0,2012-09-15 09:53:00
3:53 AM,54.0,50.0,86,30.09,10.0,Calm,Calm,-,N/A,,Clear,0,2012-09-15 10:53:00
4:53 AM,54.0,48.9,83,30.11,10.0,Calm,Calm,-,N/A,,Clear,0,2012-09-15 11:53:00
5:53 AM,53.1,48.9,86,30.12,10.0,SE,3.5,-,N/A,,Clear,130,2012-09-15 12:53:00
6:53 AM,52.0,48.9,89,30.12,7.0,SE,5.8,-,N/A,,Clear,140,2012-09-15 13:53:00
7:53 AM,54.0,50.0,86,30.14,9.0,SE,3.5,-,N/A,,Clear,130,2012-09-15 14:53:00
8:53 AM,55.9,51.1,84,30.15,10.0,ESE,4.6,-,N/A,,Clear,120,2012-09-15 15:53:00
9:53 AM,60.1,51.1,72,30.15,10.0,Calm,Calm,-,N/A,,Clear,0,2012-09-15 16:53:00
10:53 AM,64.0,52.0,65,30.16,10.0,Calm,Calm,-,N/A,,Clear,0,2012-09-15 17:53:00
11:53 AM,66.0,52.0,60,30.17,10.0,Calm,Calm,-,N/A,,Clear,0,2012-09-15 18:53:00
12:53 PM,68.0,52.0,56,30.17,10.0,WNW,4.6,-,N/A,,Clear,290,2012-09-15 19:53:00
1:53 PM,70.0,50.0,49,30.16,10.0,Variable,3.5,-,N/A,,Clear,0,2012-09-15 20:53:00
2:53 PM,72.0,48.0,43,30.15,10.0,Variable,5.8,-,N/A,,Clear,0,2012-09-15 21:53:00
3:53 PM,71.1,50.0,47,30.14,10.0,NW,4.6,-,N/A,,Clear,320,2012-09-15 22:53:00
4:53 PM,71.1,50.0,47,30.13,10.0,NW,3.5,-,N/A,,Mostly Cloudy,310,2012-09-15 23:53:00
5:53 PM,70.0,50.0,49,30.13,10.0,NW,3.5,-,N/A,,Clear,310,2012-09-16 00:53:00
6:53 PM,69.1,48.0,47,30.13,10.0,NW,3.5,-,N/A,,Clear,310,2012-09-16 01:53:00
7:53 PM,66.9,50.0,54,30.14,10.0,Calm,Calm,-,N/A,,Clear,0,2012-09-16 02:53:00
8:53 PM,64.9,50.0,58,30.15,10.0,Calm,Calm,-,N/A,,Clear,0,2012-09-16 03:53:00
9:53 PM,62.1,48.0,60,30.15,10.0,Calm,Calm,-,N/A,,Clear,0,2012-09-16 04:53:00
10:53 PM,60.1,48.9,67,30.17,10.0,Calm,Calm,-,N/A,,Clear,0,2012-09-16 05:53:00
11:53 PM,57.9,48.9,72,30.17,10.0,Calm,Calm,-,N/A,,Clear,0,2012-09-16 06:53:00